createdAt,value
2019-06-27T00:01:48.706Z,15.10
2019-06-27T00:04:37.457Z,15.00
2019-06-27T00:07:26.731Z,15.00
2019-06-27T00:10:16.300Z,14.90
2019-06-27T00:13:05.381Z,14.80
2019-06-27T00:15:54.010Z,14.80
2019-06-27T00:18:43.305Z,14.70
2019-06-27T00:21:31.921Z,14.60
2019-06-27T00:24:20.741Z,14.60
2019-06-27T00:27:11.569Z,14.60
2019-06-27T00:30:01.056Z,14.60
2019-06-27T00:32:49.851Z,14.70
2019-06-27T00:35:38.795Z,14.80
2019-06-27T00:38:28.094Z,14.70
2019-06-27T00:41:17.410Z,14.80
2019-06-27T00:44:06.825Z,14.70
2019-06-27T00:46:55.993Z,14.70
2019-06-27T00:49:45.101Z,14.70
2019-06-27T00:52:34.638Z,14.70
2019-06-27T00:55:23.576Z,14.70
2019-06-27T00:58:12.565Z,14.80
2019-06-27T01:01:01.648Z,14.80
2019-06-27T01:03:50.487Z,14.80
2019-06-27T01:06:39.238Z,14.90
2019-06-27T01:09:28.926Z,14.90
2019-06-27T01:12:18.602Z,14.90
2019-06-27T01:15:08.812Z,14.80
2019-06-27T01:17:58.371Z,14.70
2019-06-27T01:20:47.164Z,14.70
2019-06-27T01:23:36.102Z,14.60
2019-06-27T01:26:24.979Z,14.70
2019-06-27T01:29:14.443Z,14.70
2019-06-27T01:32:03.586Z,14.60
2019-06-27T01:34:52.667Z,14.60
2019-06-27T01:37:42.514Z,14.60
2019-06-27T01:40:31.077Z,14.70
2019-06-27T01:43:20.369Z,14.60
2019-06-27T01:46:09.456Z,14.60
2019-06-27T01:48:59.422Z,14.50
2019-06-27T01:52:08.507Z,14.50
2019-06-27T01:54:57.928Z,14.40
2019-06-27T01:57:47.539Z,14.40
2019-06-27T02:00:36.979Z,14.40
2019-06-27T02:03:26.264Z,14.40
2019-06-27T02:06:15.159Z,14.40
2019-06-27T02:09:04.884Z,14.30
2019-06-27T02:11:54.232Z,14.20
2019-06-27T02:14:44.755Z,14.20
2019-06-27T02:17:34.065Z,14.20
2019-06-27T02:20:23.902Z,14.20
2019-06-27T02:23:15.894Z,14.30
2019-06-27T02:26:03.016Z,14.20
2019-06-27T02:28:52.480Z,14.30
2019-06-27T02:31:41.568Z,14.30
2019-06-27T02:34:30.930Z,14.30
2019-06-27T02:37:19.543Z,14.20
2019-06-27T02:40:09.716Z,14.20
2019-06-27T02:42:58.980Z,14.20
2019-06-27T02:45:48.109Z,14.20
2019-06-27T02:48:37.833Z,14.20
2019-06-27T02:51:27.480Z,14.20
2019-06-27T02:54:16.733Z,14.20
2019-06-27T02:57:06.098Z,14.20
2019-06-27T02:59:55.222Z,14.20
2019-06-27T03:02:44.618Z,14.20
2019-06-27T03:05:34.221Z,14.10
2019-06-27T03:08:23.119Z,14.20
2019-06-27T03:11:12.200Z,14.20
2019-06-27T03:14:01.468Z,14.20
2019-06-27T03:16:50.974Z,14.20
2019-06-27T03:19:39.798Z,14.20
2019-06-27T03:22:28.863Z,14.20
2019-06-27T03:25:18.575Z,14.20
2019-06-27T03:28:45.055Z,14.30
2019-06-27T03:31:18.104Z,14.40
2019-06-27T03:34:06.953Z,14.40
2019-06-27T03:36:56.117Z,14.40
2019-06-27T03:39:45.471Z,14.40
2019-06-27T03:42:34.890Z,14.50
2019-06-27T03:45:24.322Z,14.50
2019-06-27T03:48:22.962Z,14.50
2019-06-27T03:51:11.869Z,14.50
2019-06-27T03:54:00.786Z,14.60
2019-06-27T03:56:50.109Z,14.70
2019-06-27T03:59:39.170Z,14.70
2019-06-27T04:02:28.283Z,14.70
2019-06-27T04:05:17.281Z,14.80
2019-06-27T04:08:06.360Z,14.80
2019-06-27T04:10:55.846Z,14.80
2019-06-27T04:13:45.148Z,14.90
2019-06-27T04:16:36.025Z,14.90
2019-06-27T04:19:24.481Z,15.10
2019-06-27T04:22:17.336Z,15.10
2019-06-27T04:25:05.900Z,15.10
2019-06-27T04:27:59.624Z,15.10
2019-06-27T04:30:45.844Z,15.10
2019-06-27T04:33:34.641Z,15.20
2019-06-27T04:36:24.027Z,15.30
2019-06-27T04:39:13.053Z,15.60
2019-06-27T04:42:02.524Z,15.90
2019-06-27T04:44:51.710Z,16.00
2019-06-27T04:47:41.372Z,15.90
2019-06-27T04:50:30.219Z,16.00
2019-06-27T04:53:19.209Z,16.20
2019-06-27T04:56:08.492Z,16.50
2019-06-27T04:58:57.883Z,16.80
2019-06-27T05:01:47.720Z,17.90
2019-06-27T05:04:36.783Z,17.20
2019-06-27T05:07:25.868Z,16.60
2019-06-27T05:10:15.496Z,16.30
2019-06-27T05:13:04.180Z,16.10
2019-06-27T05:15:53.099Z,16.20
2019-06-27T05:18:41.970Z,16.20
2019-06-27T05:21:31.113Z,16.10
2019-06-27T05:24:20.050Z,16.20
2019-06-27T05:27:09.079Z,16.00
2019-06-27T05:30:08.824Z,16.00
2019-06-27T05:32:49.461Z,16.30
2019-06-27T05:35:38.276Z,16.30
2019-06-27T05:38:27.580Z,16.90
2019-06-27T05:41:16.440Z,17.20
2019-06-27T05:44:05.281Z,17.90
2019-06-27T05:46:54.665Z,17.90
2019-06-27T05:49:43.815Z,17.70
2019-06-27T05:52:33.218Z,18.70
2019-06-27T05:55:22.092Z,18.60
2019-06-27T05:58:11.354Z,18.40
2019-06-27T06:01:00.738Z,17.80
2019-06-27T06:03:49.781Z,18.10
2019-06-27T06:06:39.152Z,18.00
2019-06-27T06:09:28.291Z,17.90
2019-06-27T06:12:17.278Z,17.80
2019-06-27T06:15:08.519Z,18.20
2019-06-27T06:17:58.097Z,17.90
2019-06-27T06:20:46.949Z,18.00
2019-06-27T06:23:36.517Z,17.80
2019-06-27T06:26:25.257Z,17.50
2019-06-27T06:29:14.536Z,17.70
2019-06-27T06:32:03.414Z,18.00
2019-06-27T06:34:53.077Z,18.30
2019-06-27T06:37:42.385Z,18.30
2019-06-27T06:40:31.564Z,18.10
2019-06-27T06:43:20.906Z,18.10
2019-06-27T06:46:09.788Z,18.20
2019-06-27T06:48:58.873Z,18.00
2019-06-27T06:51:48.241Z,18.10
2019-06-27T06:54:37.049Z,18.20
2019-06-27T06:57:25.768Z,18.20
2019-06-27T07:00:15.804Z,18.00
2019-06-27T07:03:05.260Z,18.00
2019-06-27T07:05:54.064Z,18.20
2019-06-27T07:08:43.298Z,18.50
2019-06-27T07:11:32.431Z,19.10
2019-06-27T07:14:21.620Z,19.10
2019-06-27T07:17:11.013Z,18.90
2019-06-27T07:20:00.313Z,18.90
2019-06-27T07:22:49.649Z,18.80
2019-06-27T07:25:38.879Z,18.80
2019-06-27T07:28:28.797Z,18.80
2019-06-27T07:31:18.471Z,18.60
2019-06-27T07:34:08.358Z,18.60
2019-06-27T07:36:57.594Z,18.80
2019-06-27T07:39:46.274Z,19.10
2019-06-27T07:42:35.047Z,19.40
2019-06-27T07:45:24.413Z,19.30
2019-06-27T07:48:13.264Z,19.20
2019-06-27T07:51:02.702Z,19.10
2019-06-27T07:53:51.911Z,19.10
2019-06-27T07:56:40.752Z,19.30
2019-06-27T07:59:30.016Z,19.50
2019-06-27T08:02:19.293Z,19.90
2019-06-27T08:05:09.280Z,20.10
2019-06-27T08:07:58.240Z,19.70
2019-06-27T08:10:47.737Z,19.70
2019-06-27T08:13:36.623Z,19.70
2019-06-27T08:16:26.284Z,19.70
2019-06-27T08:19:15.229Z,19.80
2019-06-27T08:22:04.500Z,19.70
2019-06-27T08:24:53.601Z,19.60
2019-06-27T08:27:42.737Z,19.70
2019-06-27T08:30:32.199Z,19.70
2019-06-27T08:33:21.885Z,19.60
2019-06-27T08:36:11.212Z,19.60
2019-06-27T08:38:59.913Z,19.50
2019-06-27T08:41:48.959Z,19.20
2019-06-27T08:44:37.808Z,19.00
2019-06-27T08:47:26.911Z,18.80
2019-06-27T08:50:17.828Z,18.80
2019-06-27T08:53:06.485Z,18.80
2019-06-27T08:55:56.042Z,18.70
2019-06-27T08:58:44.742Z,18.60
2019-06-27T09:01:34.069Z,18.70
2019-06-27T09:04:23.237Z,18.70
2019-06-27T09:07:12.443Z,18.90
2019-06-27T09:10:01.884Z,19.00
2019-06-27T09:12:51.462Z,18.80
2019-06-27T09:15:40.729Z,18.70
2019-06-27T09:18:29.274Z,18.40
2019-06-27T09:21:18.858Z,18.20
2019-06-27T09:24:08.286Z,18.00
2019-06-27T09:26:57.413Z,18.10
2019-06-27T09:29:46.572Z,18.00
2019-06-27T09:32:35.701Z,17.90
2019-06-27T09:35:25.295Z,17.80
2019-06-27T09:38:14.331Z,17.90
2019-06-27T09:41:03.917Z,18.00
2019-06-27T09:43:52.768Z,17.90
2019-06-27T09:46:41.916Z,18.00
2019-06-27T09:49:31.450Z,18.30
2019-06-27T09:52:20.780Z,18.60
2019-06-27T09:55:11.733Z,19.00
2019-06-27T09:58:00.895Z,19.20
2019-06-27T10:00:51.087Z,19.30
2019-06-27T10:03:40.114Z,19.30
2019-06-27T10:06:29.679Z,18.90
2019-06-27T10:09:18.901Z,18.50
2019-06-27T10:12:08.264Z,18.50
2019-06-27T10:14:57.227Z,18.50
2019-06-27T10:17:46.682Z,18.90
2019-06-27T10:20:35.973Z,19.50
2019-06-27T10:23:24.731Z,19.60
2019-06-27T10:26:13.698Z,19.40
2019-06-27T10:29:02.404Z,19.60
2019-06-27T10:31:52.139Z,19.90
2019-06-27T10:34:41.042Z,20.30
2019-06-27T10:37:30.623Z,20.20
2019-06-27T10:40:19.915Z,19.70
2019-06-27T10:43:09.515Z,19.50
2019-06-27T10:45:59.117Z,19.10
2019-06-27T10:48:47.649Z,19.10
2019-06-27T10:51:37.121Z,19.50
2019-06-27T10:54:26.212Z,20.00
2019-06-27T10:57:15.569Z,20.80
2019-06-27T11:00:06.822Z,20.80
2019-06-27T11:02:56.449Z,20.60
2019-06-27T11:05:45.418Z,20.60
2019-06-27T11:08:34.615Z,20.50
2019-06-27T11:11:23.649Z,20.40
2019-06-27T11:14:12.506Z,20.40
2019-06-27T11:17:02.187Z,20.60
2019-06-27T11:19:52.579Z,20.80
2019-06-27T11:22:41.852Z,20.60
2019-06-27T11:25:31.012Z,20.10
2019-06-27T11:28:20.390Z,19.80
2019-06-27T11:31:09.249Z,19.90
2019-06-27T11:33:57.792Z,20.10
2019-06-27T11:36:46.874Z,20.00
2019-06-27T11:39:35.878Z,20.00
2019-06-27T11:42:25.706Z,20.10
2019-06-27T11:45:16.969Z,20.10
2019-06-27T11:48:06.403Z,20.00
2019-06-27T11:50:55.099Z,19.80
2019-06-27T11:53:44.330Z,19.90
2019-06-27T11:56:33.580Z,20.30
2019-06-27T11:59:22.685Z,20.80
2019-06-27T12:02:11.623Z,20.80
2019-06-27T12:05:00.923Z,20.70
2019-06-27T12:07:50.070Z,20.40
2019-06-27T12:10:39.067Z,20.00
2019-06-27T12:13:28.493Z,19.80
2019-06-27T12:16:17.613Z,20.00
2019-06-27T12:19:06.935Z,20.20
2019-06-27T12:21:56.412Z,20.70
2019-06-27T12:24:45.647Z,20.70
2019-06-27T12:27:34.544Z,20.70
2019-06-27T12:30:23.763Z,21.00
2019-06-27T12:33:13.485Z,20.90
2019-06-27T12:36:02.881Z,20.60
2019-06-27T12:38:52.131Z,20.50
2019-06-27T12:41:41.191Z,20.30
2019-06-27T12:44:30.884Z,19.90
2019-06-27T12:47:20.241Z,20.10
2019-06-27T12:50:10.265Z,20.60
2019-06-27T12:52:59.863Z,20.50
2019-06-27T12:55:48.613Z,20.70
2019-06-27T12:58:37.182Z,20.60
2019-06-27T13:01:25.829Z,20.50
2019-06-27T13:04:23.416Z,20.20
2019-06-27T13:07:04.963Z,20.40
2019-06-27T13:09:53.989Z,20.40
2019-06-27T13:12:43.259Z,20.00
2019-06-27T13:15:32.427Z,19.70
2019-06-27T13:18:21.491Z,19.70
2019-06-27T13:21:10.687Z,19.50
2019-06-27T13:24:00.186Z,19.30
2019-06-27T13:26:49.392Z,19.20
2019-06-27T13:29:38.774Z,19.20
2019-06-27T13:32:28.132Z,19.20
2019-06-27T13:35:17.415Z,19.30
2019-06-27T13:38:07.097Z,19.30
2019-06-27T13:40:55.681Z,19.30
2019-06-27T13:43:49.015Z,19.10
2019-06-27T13:46:36.472Z,19.10
2019-06-27T13:49:25.400Z,19.00
2019-06-27T13:52:14.452Z,19.00
2019-06-27T13:55:04.258Z,19.50
2019-06-27T13:57:57.178Z,19.50
2019-06-27T14:00:46.392Z,19.60
2019-06-27T14:03:48.809Z,19.30
2019-06-27T14:06:26.043Z,19.10
2019-06-27T14:09:22.783Z,19.10
2019-06-27T14:12:05.996Z,19.30
2019-06-27T14:15:00.048Z,19.20
2019-06-27T14:17:45.829Z,19.10
2019-06-27T14:20:35.257Z,19.10
2019-06-27T14:23:24.024Z,19.00
2019-06-27T14:26:13.489Z,18.90
2019-06-27T14:29:02.684Z,19.10
2019-06-27T14:31:51.609Z,19.10
2019-06-27T14:34:41.008Z,18.80
2019-06-27T14:37:29.973Z,18.60
2019-06-27T14:40:20.074Z,18.40
2019-06-27T14:43:09.216Z,18.30
2019-06-27T14:45:58.800Z,18.20
2019-06-27T14:48:47.549Z,18.00
2019-06-27T14:51:36.618Z,18.10
2019-06-27T14:54:26.177Z,18.10
2019-06-27T14:57:14.944Z,18.20
2019-06-27T15:00:07.696Z,18.40
2019-06-27T15:02:57.213Z,18.40
2019-06-27T15:05:47.054Z,18.70
2019-06-27T15:08:36.109Z,18.90
2019-06-27T15:11:25.695Z,19.00
2019-06-27T15:14:14.967Z,19.00
2019-06-27T15:17:04.337Z,19.00
2019-06-27T15:19:53.110Z,19.00
2019-06-27T15:22:42.266Z,19.00
2019-06-27T15:25:32.041Z,19.10
2019-06-27T15:28:20.951Z,19.00
2019-06-27T15:31:10.179Z,19.30
2019-06-27T15:33:59.952Z,19.30
2019-06-27T15:36:49.109Z,19.40
2019-06-27T15:39:38.048Z,19.30
2019-06-27T15:42:27.657Z,19.10
2019-06-27T15:45:17.618Z,19.20
2019-06-27T15:48:06.269Z,19.30
2019-06-27T15:50:55.468Z,19.60
2019-06-27T15:53:44.605Z,19.60
2019-06-27T15:56:34.116Z,19.50
2019-06-27T15:59:23.247Z,19.30
2019-06-27T16:02:12.340Z,19.20
2019-06-27T16:05:01.806Z,19.20
2019-06-27T16:07:51.187Z,19.10
2019-06-27T16:10:40.986Z,19.00
2019-06-27T16:13:30.372Z,18.80
2019-06-27T16:16:19.316Z,18.90
2019-06-27T16:19:08.589Z,18.80
2019-06-27T16:21:57.253Z,18.90
2019-06-27T16:24:46.019Z,18.90
2019-06-27T16:27:35.402Z,19.00
2019-06-27T16:30:24.897Z,19.10
2019-06-27T16:33:13.590Z,19.10
2019-06-27T16:36:02.875Z,19.00
2019-06-27T16:38:51.469Z,18.90
2019-06-27T16:41:40.099Z,18.80
2019-06-27T16:44:29.380Z,18.80
2019-06-27T16:47:18.748Z,18.60
2019-06-27T16:50:09.493Z,18.60
2019-06-27T16:52:59.083Z,18.70
2019-06-27T16:55:48.316Z,18.70
2019-06-27T16:58:37.833Z,18.60
2019-06-27T17:01:26.999Z,18.60
2019-06-27T17:04:16.156Z,18.60
2019-06-27T17:07:05.739Z,18.60
2019-06-27T17:09:54.665Z,18.50
2019-06-27T17:12:43.871Z,18.40
2019-06-27T17:15:32.733Z,18.30
2019-06-27T17:18:22.311Z,18.20
2019-06-27T17:21:10.965Z,18.10
2019-06-27T17:23:59.710Z,18.00
2019-06-27T17:26:49.091Z,18.10
2019-06-27T17:29:38.002Z,18.10
2019-06-27T17:32:27.644Z,18.10
2019-06-27T17:35:16.849Z,18.00
2019-06-27T17:38:06.189Z,17.90
2019-06-27T17:40:55.557Z,17.80
2019-06-27T17:43:45.229Z,17.70
2019-06-27T17:46:34.424Z,17.80
2019-06-27T17:49:25.195Z,17.60
2019-06-27T17:52:14.356Z,17.60
2019-06-27T17:55:06.074Z,17.60
2019-06-27T17:57:55.776Z,17.50
2019-06-27T18:00:44.931Z,17.50
2019-06-27T18:03:34.415Z,17.50
2019-06-27T18:06:24.529Z,17.50
2019-06-27T18:09:13.672Z,17.40
2019-06-27T18:12:02.533Z,17.40
2019-06-27T18:14:51.794Z,17.40
2019-06-27T18:17:40.970Z,17.30
2019-06-27T18:20:29.807Z,17.20
2019-06-27T18:23:19.040Z,17.20
2019-06-27T18:26:08.355Z,17.10
2019-06-27T18:28:57.736Z,17.20
2019-06-27T18:31:46.475Z,17.20
2019-06-27T18:34:36.275Z,17.10
2019-06-27T18:37:29.678Z,17.00
2019-06-27T18:40:17.155Z,16.90
2019-06-27T18:43:06.454Z,16.80
2019-06-27T18:45:55.420Z,16.80
2019-06-27T18:48:44.175Z,16.70
2019-06-27T18:51:33.309Z,16.70
2019-06-27T18:54:22.898Z,16.60
2019-06-27T18:57:13.265Z,16.50
2019-06-27T19:00:02.770Z,16.50
2019-06-27T19:02:52.144Z,16.50
2019-06-27T19:05:41.306Z,16.40
2019-06-27T19:08:30.891Z,16.50
2019-06-27T19:11:20.242Z,16.50
2019-06-27T19:14:09.425Z,16.40
2019-06-27T19:16:58.006Z,16.40
2019-06-27T19:19:48.782Z,16.40
2019-06-27T19:22:55.371Z,16.30
2019-06-27T19:25:49.044Z,16.30
2019-06-27T19:28:37.992Z,16.10
2019-06-27T19:31:27.340Z,16.00
2019-06-27T19:34:16.950Z,15.90
2019-06-27T19:37:06.223Z,15.80
2019-06-27T19:39:55.481Z,15.70
2019-06-27T19:42:44.619Z,15.70
2019-06-27T19:45:34.331Z,15.70
2019-06-27T19:48:23.479Z,15.60
2019-06-27T19:51:12.991Z,15.70
2019-06-27T19:54:02.989Z,15.70
2019-06-27T19:56:51.925Z,15.70
2019-06-27T19:59:41.303Z,15.70
2019-06-27T20:02:30.220Z,15.70
2019-06-27T20:05:19.726Z,15.80
2019-06-27T20:08:19.250Z,15.80
2019-06-27T20:10:59.289Z,15.80
2019-06-27T20:13:48.315Z,15.80
2019-06-27T20:16:37.525Z,15.80
2019-06-27T20:19:26.474Z,15.70
2019-06-27T20:22:15.137Z,15.70
2019-06-27T20:25:06.533Z,15.70
2019-06-27T20:27:56.032Z,15.70
2019-06-27T20:30:45.406Z,15.60
2019-06-27T20:33:34.164Z,15.60
2019-06-27T20:36:23.740Z,15.60
2019-06-27T20:39:12.167Z,15.50
2019-06-27T20:42:01.464Z,15.50
2019-06-27T20:44:50.048Z,15.50
2019-06-27T20:47:38.963Z,15.50
2019-06-27T20:50:27.968Z,15.50
2019-06-27T20:53:17.407Z,15.50
2019-06-27T20:56:07.092Z,15.40
2019-06-27T20:58:56.278Z,15.30
2019-06-27T21:01:45.947Z,15.30
2019-06-27T21:04:34.946Z,15.30
2019-06-27T21:07:24.277Z,15.30
2019-06-27T21:10:13.649Z,15.30
2019-06-27T21:13:02.811Z,15.30
2019-06-27T21:15:52.295Z,15.20
2019-06-27T21:18:40.912Z,15.20
2019-06-27T21:21:30.109Z,15.20
2019-06-27T21:24:19.469Z,15.20
2019-06-27T21:27:09.034Z,15.20
2019-06-27T21:29:57.848Z,15.30
2019-06-27T21:32:48.471Z,15.30
2019-06-27T21:35:38.106Z,15.30
2019-06-27T21:38:27.257Z,15.40
2019-06-27T21:41:18.952Z,15.30
2019-06-27T21:44:06.775Z,15.30
2019-06-27T21:46:55.476Z,15.30
2019-06-27T21:49:44.552Z,15.30
2019-06-27T21:52:33.507Z,15.30
2019-06-27T21:55:22.429Z,15.30
2019-06-27T21:58:11.803Z,15.20
2019-06-27T22:01:01.150Z,15.20
2019-06-27T22:03:49.778Z,15.30
2019-06-27T22:06:39.263Z,15.20
2019-06-27T22:09:28.402Z,15.20
2019-06-27T22:12:17.468Z,15.20
2019-06-27T22:15:08.151Z,15.20
2019-06-27T22:17:57.657Z,15.20
2019-06-27T22:20:46.866Z,15.20
2019-06-27T22:23:36.162Z,15.20
2019-06-27T22:26:25.726Z,15.20
2019-06-27T22:29:15.034Z,15.20
2019-06-27T22:32:04.005Z,15.20
2019-06-27T22:34:52.640Z,15.20
2019-06-27T22:37:59.743Z,15.20
2019-06-27T22:41:07.109Z,15.20
2019-06-27T22:44:14.351Z,15.20
2019-06-27T22:47:21.563Z,15.10
2019-06-27T22:50:18.693Z,15.10
2019-06-27T22:53:12.314Z,15.00
2019-06-27T22:56:01.405Z,15.00
2019-06-27T22:58:50.077Z,15.00
2019-06-27T23:01:38.977Z,14.80
2019-06-27T23:04:27.991Z,14.90
2019-06-27T23:07:17.566Z,14.80
2019-06-27T23:10:07.624Z,14.80
2019-06-27T23:12:57.143Z,14.70
2019-06-27T23:15:46.291Z,14.70
2019-06-27T23:18:35.011Z,14.70
2019-06-27T23:21:24.062Z,14.70
2019-06-27T23:24:13.220Z,14.70
2019-06-27T23:27:02.375Z,14.70
2019-06-27T23:29:51.620Z,14.70
2019-06-27T23:32:40.530Z,14.70
2019-06-27T23:35:29.858Z,14.80
2019-06-27T23:38:18.496Z,14.80
2019-06-27T23:41:07.495Z,14.80
2019-06-27T23:43:56.768Z,14.80
2019-06-27T23:46:45.153Z,14.80
2019-06-27T23:49:34.862Z,14.80
2019-06-27T23:52:24.294Z,14.80
2019-06-27T23:55:14.225Z,14.80
2019-06-27T23:58:03.718Z,14.80
